Rorichmoor — V2BV7 — position and weather

sailwx.info

Track history (hours):
 
Tides and Currents Weather Stations Pressure Air Temp Water Temp Dewpoint Dewpoint Depression Visibility Wind Speed Wind Dir Waves Ship Positions

Rorichmoor

Last reported at 2014-Oct-01 11:34 UTC. Time now 2014-Oct-01 12:29 UTC.
Position N 51°59' E 004°04'.

Length 80 m; draft 4.4 m.

Type: Cargo ship. MMSI: 304938000.

Date/timePositionNaut miles runAvg speedWind from/ knotsBaromVisibWave heightAir tempDewpointWater temp
2014-Oct-01 11:34N 51°59' E 004°04'88 9.3
2014-Oct-01 02:06N 51°14' E 002°03'8 9.8
2014-Oct-01 01:17N 51°10' E 001°52'  
2014-Sep-28 11:25N 48°32' W 002°43'0 0.0
2014-Sep-28 10:22N 48°32' W 002°43'0 0.0
2014-Sep-26 07:25N 48°32' W 002°43'19 6.1
2014-Sep-26 04:20N 48°51' W 002°41'157 7.1
2014-Sep-25 06:08N 50°36' E 000°20'610.7
2014-Sep-25 05:32N 50°37' E 000°30'83 9.1
2014-Sep-24 20:26N 51°33' E 002°07'73 7.9
2014-Sep-24 11:12N 52°02' E 003°55'6 8.7
2014-Sep-24 10:33N 51°59' E 004°04'6 2.4
2014-Sep-24 08:12N 51°56' E 004°11'0 0.0
2014-Sep-24 05:24N 51°56' E 004°11'0 0.0
2014-Sep-24 03:12N 51°56' E 004°11'0 0.0
2014-Sep-24 01:12N 51°56' E 004°11'0 0.0
2014-Sep-23 19:24N 51°56' E 004°11'0 0.0
2014-Sep-23 14:30N 51°56' E 004°11'4 4.3
2014-Sep-23 13:32N 51°58' E 004°06'98 9.7
2014-Sep-23 03:27N 52°49' E 001°49'7 8.2
2014-Sep-23 02:34N 52°53' E 001°39'8 7.6
2014-Sep-23 01:33N 52°57' E 001°28'7 7.4
2014-Sep-23 00:33N 52°60' E 001°17'41 8.2
2014-Sep-22 19:31N 53°27' E 000°25'9 8.8
2014-Sep-22 18:33N 53°32' E 000°14'9 9.4
2014-Sep-22 17:33N 53°35' W 000°01'9 8.5
2014-Sep-22 16:33N 53°41' W 000°12'6 5.9
2014-Sep-22 15:33N 53°43' W 000°22'0 0.1
2014-Sep-22 14:26N 53°43' W 000°22'0 0.0
2014-Sep-22 06:05N 53°43' W 000°22'0 0.0
2014-Sep-22 04:05N 53°43' W 000°22'3 4.8
2014-Sep-22 03:32N 53°44' W 000°18'9 9.6
2014-Sep-22 02:33N 53°37' W 000°06'1110.6
2014-Sep-22 01:32N 53°33' E 000°10'9 9.0
2014-Sep-22 00:32N 53°34' E 000°26'2 0.4
2014-Sep-21 18:24N 53°35' E 000°29'  
Track history (hours):
 
Tides and Currents Weather Stations Pressure Air Temp Water Temp Dewpoint Dewpoint Depression Visibility Wind Speed Wind Dir Waves Ship Positions

Rorichmoor

Last reported at 2014-Oct-01 11:34 UTC. Time now 2014-Oct-01 12:29 UTC.
Position N 51°59' E 004°04'.

Length 80 m; draft 4.4 m.

Type: Cargo ship. MMSI: 304938000.

Date/timePositionNaut miles runAvg speedWind from/ knotsBaromVisibWave heightAir tempDewpointWater temp
2014-Oct-01 11:34N 51°59' E 004°04'88 9.3
2014-Oct-01 02:06N 51°14' E 002°03'8 9.8
2014-Oct-01 01:17N 51°10' E 001°52'  
2014-Sep-28 11:25N 48°32' W 002°43'0 0.0
2014-Sep-28 10:22N 48°32' W 002°43'0 0.0
2014-Sep-26 07:25N 48°32' W 002°43'19 6.1
2014-Sep-26 04:20N 48°51' W 002°41'157 7.1
2014-Sep-25 06:08N 50°36' E 000°20'610.7
2014-Sep-25 05:32N 50°37' E 000°30'83 9.1
2014-Sep-24 20:26N 51°33' E 002°07'73 7.9
2014-Sep-24 11:12N 52°02' E 003°55'6 8.7
2014-Sep-24 10:33N 51°59' E 004°04'6 2.4
2014-Sep-24 08:12N 51°56' E 004°11'0 0.0
2014-Sep-24 05:24N 51°56' E 004°11'0 0.0
2014-Sep-24 03:12N 51°56' E 004°11'0 0.0
2014-Sep-24 01:12N 51°56' E 004°11'0 0.0
2014-Sep-23 19:24N 51°56' E 004°11'0 0.0
2014-Sep-23 14:30N 51°56' E 004°11'4 4.3
2014-Sep-23 13:32N 51°58' E 004°06'98 9.7
2014-Sep-23 03:27N 52°49' E 001°49'7 8.2
2014-Sep-23 02:34N 52°53' E 001°39'8 7.6
2014-Sep-23 01:33N 52°57' E 001°28'7 7.4
2014-Sep-23 00:33N 52°60' E 001°17'41 8.2
2014-Sep-22 19:31N 53°27' E 000°25'9 8.8
2014-Sep-22 18:33N 53°32' E 000°14'9 9.4
2014-Sep-22 17:33N 53°35' W 000°01'9 8.5
2014-Sep-22 16:33N 53°41' W 000°12'6 5.9
2014-Sep-22 15:33N 53°43' W 000°22'0 0.1
2014-Sep-22 14:26N 53°43' W 000°22'0 0.0
2014-Sep-22 06:05N 53°43' W 000°22'0 0.0
2014-Sep-22 04:05N 53°43' W 000°22'3 4.8
2014-Sep-22 03:32N 53°44' W 000°18'9 9.6
2014-Sep-22 02:33N 53°37' W 000°06'1110.6
2014-Sep-22 01:32N 53°33' E 000°10'9 9.0
2014-Sep-22 00:32N 53°34' E 000°26'2 0.4
2014-Sep-21 18:24N 53°35' E 000°29'  

Dump ship's entire track history